Providence Village's Hourly Summary for Monday, July 9, 2018
Hour Temp
(f)
RH
(%)
Solar Rad.
(MJ/m2)
Rainfall
(in)
Wind
(mph)
7/9/2018 12:00 AM 81 66 0 0 1.2
7/9/2018 1:00 AM 79 66 0 0 1.28
7/9/2018 2:00 AM 80 68 0 0 1.94
7/9/2018 3:00 AM 80 69 0 0 2.24
7/9/2018 4:00 AM 77 74 0 0 0.81
7/9/2018 5:00 AM 75 84 0 0 0.38
7/9/2018 6:00 AM 77 80 0 0 1.08
7/9/2018 7:00 AM 77 80 0.03 0 0.5
7/9/2018 8:00 AM 77 76 0.35 0 1.2
7/9/2018 9:00 AM 81 69 0.97 0 2.13
7/9/2018 10:00 AM 83 63 0.77 0 2.16
7/9/2018 11:00 AM 85 55 1.88 0 2.98
7/9/2018 12:00 PM 88 50 2.43 0 2.74
7/9/2018 1:00 PM 88 51 1.36 0 3.48
7/9/2018 2:00 PM 88 53 1.83 0 5.66
7/9/2018 3:00 PM 78 61 0.79 0.04 7.46
7/9/2018 4:00 PM 81 62 1.97 0.16 3.47
7/9/2018 5:00 PM 87 56 3.02 0.09 7.65
7/9/2018 6:00 PM 87 52 2.01 0.03 6.9
7/9/2018 7:00 PM 87 52 0.7 0 6.61
7/9/2018 8:00 PM 85 57 0.21 0 6.18
7/9/2018 9:00 PM 83 64 0.07 0 6.61
7/9/2018 10:00 PM 81 72 0 0 3.69
7/9/2018 11:00 PM 80 74 0 0 3.62
Data Summary 81 64 18.39 0.32 3.42